createdAt,value
2018-06-14T00:00:01.888Z,1011.27
2018-06-14T00:00:40.827Z,1011.29
2018-06-14T00:01:40.744Z,1011.29
2018-06-14T00:02:40.666Z,1011.30
2018-06-14T00:04:01.575Z,1011.21
2018-06-14T00:05:01.489Z,1011.27
2018-06-14T00:05:40.434Z,1011.28
2018-06-14T00:06:40.411Z,1011.24
2018-06-14T00:07:40.287Z,1011.30
2018-06-14T00:09:01.197Z,1011.30
2018-06-14T00:10:01.872Z,1011.28
2018-06-14T00:10:40.808Z,1011.31
2018-06-14T00:11:40.755Z,1011.26
2018-06-14T00:12:39.911Z,1011.31
2018-06-14T00:14:00.838Z,1011.29
2018-06-14T00:15:00.761Z,1011.32
2018-06-14T00:15:39.685Z,1011.30
2018-06-14T00:16:39.648Z,1011.27
2018-06-14T00:17:39.555Z,1011.28
2018-06-14T00:19:00.468Z,1011.28
2018-06-14T00:20:00.373Z,1011.26
2018-06-14T00:20:39.319Z,1011.23
2018-06-14T00:21:39.249Z,1011.24
2018-06-14T00:22:39.914Z,1011.24
2018-06-14T00:24:00.821Z,1011.22
2018-06-14T00:25:00.842Z,1011.22
2018-06-14T00:25:38.958Z,1011.23
2018-06-14T00:26:38.888Z,1011.21
2018-06-14T00:27:38.794Z,1011.24
2018-06-14T00:28:59.705Z,1011.20
2018-06-14T00:29:59.653Z,1011.16
2018-06-14T00:30:38.579Z,1011.15
2018-06-14T00:31:38.497Z,1011.13
2018-06-14T00:32:38.420Z,1011.15
2018-06-14T00:33:59.343Z,1011.12
2018-06-14T00:34:59.261Z,1011.10
2018-06-14T00:35:38.202Z,1011.16
2018-06-14T00:36:38.915Z,1011.15
2018-06-14T00:37:38.827Z,1011.15
2018-06-14T00:38:58.971Z,1011.13
2018-06-14T00:39:58.886Z,1011.19
2018-06-14T00:40:37.837Z,1011.21
2018-06-14T00:41:37.750Z,1011.19
2018-06-14T00:42:37.682Z,1011.23
2018-06-14T00:43:58.590Z,1011.22
2018-06-14T00:44:58.511Z,1011.25
2018-06-14T00:45:37.467Z,1011.22
2018-06-14T00:46:37.393Z,1011.23
2018-06-14T00:47:37.328Z,1011.23
2018-06-14T00:48:58.214Z,1011.21
2018-06-14T00:49:58.161Z,1011.22
2018-06-14T00:50:37.830Z,1011.19
2018-06-14T00:51:37.760Z,1011.18
2018-06-14T00:52:36.936Z,1011.20
2018-06-14T00:53:57.868Z,1011.21
2018-06-14T00:54:57.786Z,1011.23
2018-06-14T00:55:36.716Z,1011.23
2018-06-14T00:56:36.632Z,1011.28
2018-06-14T00:57:36.566Z,1011.27
2018-06-14T00:58:58.369Z,1011.23
2018-06-14T00:59:57.381Z,1011.30
2018-06-14T01:00:36.328Z,1011.28
2018-06-14T01:01:36.256Z,1011.24
2018-06-14T01:02:36.194Z,1011.27
2018-06-14T01:03:57.123Z,1011.28
2018-06-14T01:04:57.016Z,1011.25
2018-06-14T01:05:35.952Z,1011.23
2018-06-14T01:06:35.946Z,1011.23
2018-06-14T01:07:35.800Z,1011.25
2018-06-14T01:08:56.711Z,1011.25
2018-06-14T01:09:56.636Z,1011.19
2018-06-14T01:10:35.584Z,1011.18
2018-06-14T01:11:35.507Z,1011.18
2018-06-14T01:12:35.432Z,1011.18
2018-06-14T01:13:56.357Z,1011.16
2018-06-14T01:14:56.270Z,1011.15
2018-06-14T01:15:35.196Z,1011.18
2018-06-14T01:16:35.138Z,1011.14
2018-06-14T01:17:35.058Z,1011.17
2018-06-14T01:18:55.966Z,1011.16
2018-06-14T01:19:55.977Z,1011.14
2018-06-14T01:20:34.856Z,1011.15
2018-06-14T01:21:34.787Z,1011.13
2018-06-14T01:22:34.684Z,1011.14
2018-06-14T01:23:55.591Z,1011.15
2018-06-14T01:24:55.518Z,1011.12
2018-06-14T01:25:34.468Z,1011.15
2018-06-14T01:26:34.385Z,1011.14
2018-06-14T01:27:34.306Z,1011.16
2018-06-14T01:28:55.211Z,1011.09
2018-06-14T01:29:55.152Z,1011.09
2018-06-14T01:30:34.086Z,1011.10
2018-06-14T01:31:34.005Z,1011.09
2018-06-14T01:32:33.941Z,1011.07
2018-06-14T01:33:54.843Z,1011.09
2018-06-14T01:34:54.801Z,1011.12
2018-06-14T01:35:33.702Z,1011.06
2018-06-14T01:36:33.632Z,1011.08
2018-06-14T01:37:33.556Z,1011.03
2018-06-14T01:38:54.471Z,1011.01
2018-06-14T01:39:54.394Z,1011.03
2018-06-14T01:40:33.336Z,1011.04
2018-06-14T01:41:33.262Z,1011.03
2018-06-14T01:42:33.212Z,1010.98
2018-06-14T01:43:54.092Z,1010.96
2018-06-14T01:44:54.022Z,1010.97
2018-06-14T01:45:32.959Z,1010.97
2018-06-14T01:46:32.878Z,1011.02
2018-06-14T01:47:32.832Z,1011.00
2018-06-14T01:48:53.724Z,1011.02
2018-06-14T01:49:53.628Z,1011.03
2018-06-14T01:50:32.610Z,1010.99
2018-06-14T01:51:32.507Z,1011.05
2018-06-14T01:52:32.436Z,1011.02
2018-06-14T01:53:53.342Z,1011.04
2018-06-14T01:54:53.250Z,1011.00
2018-06-14T01:55:32.211Z,1011.00
2018-06-14T01:56:32.160Z,1010.99
2018-06-14T01:57:32.845Z,1010.98
2018-06-14T01:58:52.955Z,1010.97
2018-06-14T01:59:52.876Z,1010.99
2018-06-14T02:00:31.834Z,1010.97
2018-06-14T02:01:31.749Z,1010.96
2018-06-14T02:02:31.690Z,1010.99
2018-06-14T02:03:52.579Z,1011.00
2018-06-14T02:04:52.506Z,1011.01
2018-06-14T02:05:31.469Z,1010.98
2018-06-14T02:06:31.377Z,1011.02
2018-06-14T02:07:31.399Z,1010.99
2018-06-14T02:08:52.201Z,1010.96
2018-06-14T02:09:52.171Z,1010.94
2018-06-14T02:10:32.865Z,1010.96
2018-06-14T02:11:31.813Z,1010.92
2018-06-14T02:12:30.934Z,1010.94
2018-06-14T02:13:51.826Z,1010.95
2018-06-14T02:14:51.754Z,1010.93
2018-06-14T02:15:30.700Z,1010.94
2018-06-14T02:16:30.647Z,1010.95
2018-06-14T02:17:30.558Z,1011.00
2018-06-14T02:18:51.456Z,1010.98
2018-06-14T02:19:51.381Z,1010.99
2018-06-14T02:20:30.335Z,1010.99
2018-06-14T02:21:30.263Z,1011.01
2018-06-14T02:22:30.177Z,1011.03
2018-06-14T02:23:51.066Z,1011.02
2018-06-14T02:24:51.005Z,1011.03
2018-06-14T02:25:29.948Z,1011.04
2018-06-14T02:26:29.861Z,1011.05
2018-06-14T02:27:29.783Z,1011.03
2018-06-14T02:28:50.698Z,1011.08
2018-06-14T02:29:50.614Z,1011.11
2018-06-14T02:30:29.569Z,1011.13
2018-06-14T02:31:29.489Z,1011.08
2018-06-14T02:32:29.415Z,1011.12
2018-06-14T02:33:50.321Z,1011.10
2018-06-14T02:34:50.267Z,1011.05
2018-06-14T02:35:29.218Z,1011.10
2018-06-14T02:36:30.946Z,1011.09
2018-06-14T02:37:29.853Z,1011.09
2018-06-14T02:38:49.946Z,1011.05
2018-06-14T02:39:49.877Z,1011.07
2018-06-14T02:40:28.803Z,1011.08
2018-06-14T02:41:28.741Z,1011.02
2018-06-14T02:42:28.655Z,1011.07
2018-06-14T02:43:49.567Z,1011.10
2018-06-14T02:44:49.496Z,1011.06
2018-06-14T02:45:28.436Z,1011.08
2018-06-14T02:46:28.428Z,1011.08
2018-06-14T02:47:28.278Z,1011.08
2018-06-14T02:48:49.306Z,1011.02
2018-06-14T02:49:49.103Z,1011.01
2018-06-14T02:50:28.046Z,1010.99
2018-06-14T02:51:27.973Z,1011.02
2018-06-14T02:52:27.918Z,1010.99
2018-06-14T02:53:48.844Z,1011.03
2018-06-14T02:54:48.744Z,1011.03
2018-06-14T02:55:27.677Z,1011.00
2018-06-14T02:56:27.579Z,1011.03
2018-06-14T02:57:27.538Z,1011.01
2018-06-14T02:58:48.435Z,1010.99
2018-06-14T02:59:48.361Z,1011.02
2018-06-14T03:00:27.325Z,1011.02
2018-06-14T03:01:27.245Z,1011.02
2018-06-14T03:02:27.164Z,1011.04
2018-06-14T03:03:48.056Z,1011.03
2018-06-14T03:04:47.983Z,1011.01
2018-06-14T03:05:26.920Z,1010.99
2018-06-14T03:06:26.865Z,1011.00
2018-06-14T03:07:26.778Z,1010.99
2018-06-14T03:08:47.683Z,1010.95
2018-06-14T03:09:47.603Z,1010.96
2018-06-14T03:10:26.552Z,1010.97
2018-06-14T03:11:26.516Z,1010.97
2018-06-14T03:12:26.437Z,1010.99
2018-06-14T03:13:47.300Z,1010.99
2018-06-14T03:14:47.222Z,1010.96
2018-06-14T03:15:26.173Z,1010.97
2018-06-14T03:16:26.085Z,1010.95
2018-06-14T03:17:26.020Z,1010.97
2018-06-14T03:18:46.928Z,1010.96
2018-06-14T03:19:46.846Z,1010.92
2018-06-14T03:20:25.800Z,1010.90
2018-06-14T03:21:25.724Z,1010.91
2018-06-14T03:22:25.643Z,1010.90
2018-06-14T03:23:46.579Z,1010.85
2018-06-14T03:24:46.511Z,1010.87
2018-06-14T03:25:25.412Z,1010.86
2018-06-14T03:26:25.353Z,1010.84
2018-06-14T03:27:25.277Z,1010.85
2018-06-14T03:28:46.165Z,1010.77
2018-06-14T03:29:46.084Z,1010.81
2018-06-14T03:30:25.136Z,1010.74
2018-06-14T03:31:24.952Z,1010.76
2018-06-14T03:32:24.872Z,1010.73
2018-06-14T03:33:45.809Z,1010.73
2018-06-14T03:34:45.712Z,1010.71
2018-06-14T03:35:24.644Z,1010.69
2018-06-14T03:36:24.565Z,1010.73
2018-06-14T03:37:24.493Z,1010.70
2018-06-14T03:38:45.418Z,1010.68
2018-06-14T03:39:45.327Z,1010.69
2018-06-14T03:40:24.267Z,1010.64
2018-06-14T03:41:24.200Z,1010.63
2018-06-14T03:42:24.119Z,1010.61
2018-06-14T03:43:45.056Z,1010.66
2018-06-14T03:44:44.952Z,1010.68
2018-06-14T03:45:23.893Z,1010.65
2018-06-14T03:46:23.882Z,1010.62
2018-06-14T03:47:23.813Z,1010.66
2018-06-14T03:48:44.638Z,1010.65
2018-06-14T03:49:44.568Z,1010.67
2018-06-14T03:50:23.524Z,1010.69
2018-06-14T03:51:23.442Z,1010.62
2018-06-14T03:52:23.374Z,1010.67
2018-06-14T03:53:44.285Z,1010.64
2018-06-14T03:54:44.208Z,1010.66
2018-06-14T03:55:23.142Z,1010.63
2018-06-14T03:56:23.060Z,1010.65
2018-06-14T03:57:22.977Z,1010.67
2018-06-14T03:58:43.889Z,1010.65
2018-06-14T03:59:43.826Z,1010.67
2018-06-14T04:00:22.805Z,1010.61
2018-06-14T04:01:22.673Z,1010.63
2018-06-14T04:02:22.614Z,1010.67
2018-06-14T04:03:43.520Z,1010.64
2018-06-14T04:04:43.501Z,1010.67
2018-06-14T04:05:22.376Z,1010.68
2018-06-14T04:06:22.318Z,1010.68
2018-06-14T04:07:22.247Z,1010.71
2018-06-14T04:08:43.175Z,1010.71
2018-06-14T04:09:43.075Z,1010.75
2018-06-14T04:10:22.017Z,1010.73
2018-06-14T04:11:21.945Z,1010.76
2018-06-14T04:12:21.866Z,1010.73
2018-06-14T04:13:42.760Z,1010.70
2018-06-14T04:14:42.661Z,1010.77
2018-06-14T04:15:21.648Z,1010.76
2018-06-14T04:16:21.571Z,1010.74
2018-06-14T04:17:21.483Z,1010.77
2018-06-14T04:18:42.385Z,1010.74
2018-06-14T04:19:42.327Z,1010.71
2018-06-14T04:20:21.293Z,1010.71
2018-06-14T04:21:21.171Z,1010.69
2018-06-14T04:22:21.088Z,1010.66
2018-06-14T04:23:42.008Z,1010.66
2018-06-14T04:24:41.931Z,1010.71
2018-06-14T04:25:20.862Z,1010.69
2018-06-14T04:26:20.848Z,1010.74
2018-06-14T04:27:20.729Z,1010.72
2018-06-14T04:28:41.645Z,1010.71
2018-06-14T04:29:41.547Z,1010.70
2018-06-14T04:30:20.487Z,1010.71
2018-06-14T04:31:20.431Z,1010.73
2018-06-14T04:32:20.351Z,1010.75
2018-06-14T04:33:41.247Z,1010.77
2018-06-14T04:34:41.169Z,1010.76
2018-06-14T04:35:20.111Z,1010.77
2018-06-14T04:36:20.040Z,1010.75
2018-06-14T04:37:19.973Z,1010.74
2018-06-14T04:38:40.866Z,1010.76
2018-06-14T04:39:40.808Z,1010.78
2018-06-14T04:40:19.733Z,1010.79
2018-06-14T04:41:19.676Z,1010.80
2018-06-14T04:42:19.647Z,1010.78
2018-06-14T04:43:40.489Z,1010.77
2018-06-14T04:44:40.416Z,1010.75
2018-06-14T04:45:19.337Z,1010.76
2018-06-14T04:46:19.287Z,1010.75
2018-06-14T04:47:19.211Z,1010.73
2018-06-14T04:48:40.947Z,1010.77
2018-06-14T04:49:40.842Z,1010.77
2018-06-14T04:50:18.991Z,1010.78
2018-06-14T04:51:18.893Z,1010.81
2018-06-14T04:52:18.828Z,1010.79
2018-06-14T04:53:39.732Z,1010.80
2018-06-14T04:54:40.893Z,1010.74
2018-06-14T04:55:18.600Z,1010.76
2018-06-14T04:56:18.520Z,1010.79
2018-06-14T04:57:18.467Z,1010.72
2018-06-14T04:58:39.365Z,1010.71
2018-06-14T04:59:39.305Z,1010.75
2018-06-14T05:00:18.236Z,1010.74
2018-06-14T05:01:18.145Z,1010.77
2018-06-14T05:02:18.101Z,1010.75
2018-06-14T05:03:39.818Z,1010.72
2018-06-14T05:04:38.930Z,1010.73
2018-06-14T05:05:17.844Z,1010.74
2018-06-14T05:06:17.771Z,1010.74
2018-06-14T05:07:17.687Z,1010.73
2018-06-14T05:08:38.612Z,1010.75
2018-06-14T05:09:38.550Z,1010.74
2018-06-14T05:10:17.550Z,1010.79
2018-06-14T05:11:17.433Z,1010.77
2018-06-14T05:12:17.332Z,1010.77
2018-06-14T05:13:38.277Z,1010.76
2018-06-14T05:14:38.194Z,1010.78
2018-06-14T05:15:17.101Z,1010.78
2018-06-14T05:16:17.027Z,1010.75
2018-06-14T05:17:16.955Z,1010.71
2018-06-14T05:18:37.868Z,1010.71
2018-06-14T05:19:37.791Z,1010.73
2018-06-14T05:20:16.736Z,1010.69
2018-06-14T05:21:16.654Z,1010.69
2018-06-14T05:22:16.560Z,1010.68
2018-06-14T05:23:37.573Z,1010.71
2018-06-14T05:24:37.460Z,1010.72
2018-06-14T05:25:16.354Z,1010.69
2018-06-14T05:26:16.290Z,1010.72
2018-06-14T05:27:16.205Z,1010.72
2018-06-14T05:28:38.820Z,1010.72
2018-06-14T05:29:37.897Z,1010.76
2018-06-14T05:30:15.975Z,1010.74
2018-06-14T05:31:15.894Z,1010.73
2018-06-14T05:32:15.859Z,1010.78
2018-06-14T05:33:36.751Z,1010.72
2018-06-14T05:34:36.688Z,1010.79
2018-06-14T05:35:15.621Z,1010.80
2018-06-14T05:36:15.545Z,1010.77
2018-06-14T05:37:15.464Z,1010.80
2018-06-14T05:38:36.410Z,1010.81
2018-06-14T05:39:36.303Z,1010.80
2018-06-14T05:40:15.243Z,1010.77
2018-06-14T05:41:15.162Z,1010.76
2018-06-14T05:42:15.127Z,1010.74
2018-06-14T05:43:36.824Z,1010.76
2018-06-14T05:44:35.905Z,1010.67
2018-06-14T05:45:14.856Z,1010.70
2018-06-14T05:46:14.805Z,1010.70
2018-06-14T05:47:14.729Z,1010.71
2018-06-14T05:48:35.639Z,1010.71
2018-06-14T05:49:35.537Z,1010.68
2018-06-14T05:50:14.487Z,1010.71
2018-06-14T05:51:14.432Z,1010.66
2018-06-14T05:52:14.336Z,1010.63
2018-06-14T05:53:35.318Z,1010.69
2018-06-14T05:54:35.207Z,1010.70
2018-06-14T05:55:14.127Z,1010.69
2018-06-14T05:56:14.039Z,1010.67
2018-06-14T05:57:14.004Z,1010.70
2018-06-14T05:58:34.885Z,1010.69
2018-06-14T05:59:34.804Z,1010.66
2018-06-14T06:00:13.762Z,1010.66
2018-06-14T06:01:13.681Z,1010.67
2018-06-14T06:02:13.594Z,1010.67
2018-06-14T06:03:35.913Z,1010.68
2018-06-14T06:04:34.456Z,1010.68
2018-06-14T06:05:13.436Z,1010.66
2018-06-14T06:06:13.311Z,1010.63
2018-06-14T06:07:13.238Z,1010.64
2018-06-14T06:08:34.149Z,1010.62
2018-06-14T06:09:34.896Z,1010.59
2018-06-14T06:10:13.859Z,1010.66
2018-06-14T06:11:12.940Z,1010.59
2018-06-14T06:12:12.905Z,1010.59
2018-06-14T06:13:35.831Z,1010.54
2018-06-14T06:14:33.714Z,1010.57
2018-06-14T06:15:12.655Z,1010.57
2018-06-14T06:16:12.570Z,1010.56
2018-06-14T06:17:12.494Z,1010.55
2018-06-14T06:18:33.698Z,1010.51
2018-06-14T06:19:33.376Z,1010.52
2018-06-14T06:20:12.310Z,1010.54
2018-06-14T06:21:12.211Z,1010.55
2018-06-14T06:22:13.850Z,1010.53
2018-06-14T06:23:33.967Z,1010.51
2018-06-14T06:24:33.842Z,1010.48
2018-06-14T06:25:11.891Z,1010.47
2018-06-14T06:26:11.874Z,1010.46
2018-06-14T06:27:11.866Z,1010.49
2018-06-14T06:28:32.656Z,1010.45
2018-06-14T06:29:32.644Z,1010.48
2018-06-14T06:30:11.544Z,1010.48
2018-06-14T06:31:11.455Z,1010.44
2018-06-14T06:32:11.393Z,1010.45
2018-06-14T06:33:32.349Z,1010.43
2018-06-14T06:34:32.224Z,1010.45
2018-06-14T06:35:11.169Z,1010.50
2018-06-14T06:36:12.837Z,1010.48
2018-06-14T06:37:11.031Z,1010.49
2018-06-14T06:38:31.933Z,1010.45
2018-06-14T06:39:31.856Z,1010.41
2018-06-14T06:40:10.789Z,1010.41
2018-06-14T06:41:10.730Z,1010.48
2018-06-14T06:42:10.643Z,1010.44
2018-06-14T06:43:31.583Z,1010.45
2018-06-14T06:44:31.500Z,1010.46
2018-06-14T06:45:10.436Z,1010.43
2018-06-14T06:46:10.409Z,1010.43
2018-06-14T06:47:10.295Z,1010.49
2018-06-14T06:48:31.225Z,1010.50
2018-06-14T06:49:31.124Z,1010.47
2018-06-14T06:50:10.078Z,1010.46
2018-06-14T06:51:10.026Z,1010.48
2018-06-14T06:52:09.924Z,1010.51
2018-06-14T06:53:30.858Z,1010.52
2018-06-14T06:54:30.809Z,1010.54
2018-06-14T06:55:09.754Z,1010.54
2018-06-14T06:56:09.627Z,1010.53
2018-06-14T06:57:09.605Z,1010.48
2018-06-14T06:58:30.491Z,1010.53
2018-06-14T06:59:30.420Z,1010.48
2018-06-14T07:00:09.377Z,1010.47
2018-06-14T07:01:09.297Z,1010.47
2018-06-14T07:02:09.220Z,1010.48
2018-06-14T07:03:30.123Z,1010.48
2018-06-14T07:04:30.039Z,1010.47
2018-06-14T07:05:08.999Z,1010.48
2018-06-14T07:06:09.015Z,1010.52
2018-06-14T07:07:08.840Z,1010.45
2018-06-14T07:08:29.779Z,1010.43
2018-06-14T07:09:29.694Z,1010.44
2018-06-14T07:10:08.622Z,1010.50
2018-06-14T07:11:08.552Z,1010.42
2018-06-14T07:12:08.473Z,1010.44
2018-06-14T07:13:29.426Z,1010.43
2018-06-14T07:14:29.316Z,1010.37
2018-06-14T07:15:08.261Z,1010.37
2018-06-14T07:16:08.186Z,1010.40
2018-06-14T07:17:08.108Z,1010.39
2018-06-14T07:18:29.019Z,1010.42
2018-06-14T07:19:28.957Z,1010.40
2018-06-14T07:20:07.891Z,1010.41
2018-06-14T07:21:07.956Z,1010.44
2018-06-14T07:22:07.758Z,1010.41
2018-06-14T07:23:28.720Z,1010.42
2018-06-14T07:24:28.597Z,1010.40
2018-06-14T07:25:07.552Z,1010.42
2018-06-14T07:26:07.475Z,1010.35
2018-06-14T07:27:07.392Z,1010.37
2018-06-14T07:28:28.329Z,1010.39
2018-06-14T07:29:28.240Z,1010.33
2018-06-14T07:30:07.191Z,1010.31
2018-06-14T07:31:07.138Z,1010.33
2018-06-14T07:32:07.113Z,1010.32
2018-06-14T07:33:27.991Z,1010.32
2018-06-14T07:34:27.866Z,1010.24
2018-06-14T07:35:06.821Z,1010.28
2018-06-14T07:36:06.756Z,1010.27
2018-06-14T07:37:06.670Z,1010.25
2018-06-14T07:38:27.583Z,1010.23
2018-06-14T07:39:27.519Z,1010.20
2018-06-14T07:40:06.462Z,1010.20
2018-06-14T07:41:06.391Z,1010.22
2018-06-14T07:42:06.365Z,1010.22
2018-06-14T07:43:27.237Z,1010.23
2018-06-14T07:44:27.175Z,1010.26
2018-06-14T07:45:06.963Z,1010.22
2018-06-14T07:46:06.900Z,1010.20
2018-06-14T07:47:05.960Z,1010.22
2018-06-14T07:48:26.879Z,1010.22
2018-06-14T07:49:26.821Z,1010.22
2018-06-14T07:50:05.780Z,1010.21
2018-06-14T07:51:05.689Z,1010.22
2018-06-14T07:52:05.611Z,1010.20
2018-06-14T07:53:26.531Z,1010.20
2018-06-14T07:54:26.461Z,1010.23
2018-06-14T07:55:05.392Z,1010.21
2018-06-14T07:56:05.318Z,1010.20
2018-06-14T07:57:05.271Z,1010.18
2018-06-14T07:58:26.169Z,1010.21
2018-06-14T07:59:26.098Z,1010.13
2018-06-14T08:00:05.930Z,1010.15
2018-06-14T08:01:04.998Z,1010.15
2018-06-14T08:02:04.912Z,1010.14
2018-06-14T08:03:25.818Z,1010.14
2018-06-14T08:04:25.779Z,1010.10
2018-06-14T08:05:04.804Z,1010.11
2018-06-14T08:06:04.630Z,1010.15
2018-06-14T08:07:04.555Z,1010.15
2018-06-14T08:08:25.470Z,1010.17
2018-06-14T08:09:25.396Z,1010.12
2018-06-14T08:10:04.346Z,1010.12
2018-06-14T08:11:04.295Z,1010.15
2018-06-14T08:12:04.206Z,1010.11
2018-06-14T08:13:25.115Z,1010.09
2018-06-14T08:14:25.040Z,1010.07
2018-06-14T08:15:03.982Z,1010.08
2018-06-14T08:16:03.934Z,1010.08
2018-06-14T08:17:03.855Z,1010.06
2018-06-14T08:18:24.763Z,1010.07
2018-06-14T08:19:24.694Z,1010.12
2018-06-14T08:20:03.646Z,1010.09
2018-06-14T08:21:03.574Z,1010.08
2018-06-14T08:22:03.504Z,1010.09
2018-06-14T08:23:24.413Z,1010.11
2018-06-14T08:24:24.351Z,1010.08
2018-06-14T08:25:03.309Z,1010.08
2018-06-14T08:26:03.229Z,1010.08
2018-06-14T08:27:03.208Z,1010.13
2018-06-14T08:28:24.060Z,1010.12
2018-06-14T08:29:24.007Z,1010.14
2018-06-14T08:30:02.939Z,1010.13
2018-06-14T08:31:02.871Z,1010.12
2018-06-14T08:32:02.813Z,1010.10
2018-06-14T08:33:23.722Z,1010.08
2018-06-14T08:34:23.662Z,1010.03
2018-06-14T08:35:02.597Z,1010.09
2018-06-14T08:36:02.517Z,1010.09
2018-06-14T08:37:02.482Z,1010.08
2018-06-14T08:38:23.392Z,1010.14
2018-06-14T08:39:23.300Z,1010.06
2018-06-14T08:40:02.247Z,1010.05
2018-06-14T08:41:02.187Z,1010.08
2018-06-14T08:42:02.975Z,1010.08
2018-06-14T08:43:23.009Z,1010.07
2018-06-14T08:44:22.944Z,1010.07
2018-06-14T08:45:01.939Z,1010.00
2018-06-14T08:46:01.818Z,1009.98
2018-06-14T08:47:01.791Z,1010.00
2018-06-14T08:48:22.677Z,1009.97
2018-06-14T08:49:22.623Z,1009.97
2018-06-14T08:50:01.554Z,1009.99
2018-06-14T08:51:01.485Z,1010.02
2018-06-14T08:52:01.421Z,1009.97
2018-06-14T08:53:22.336Z,1009.95
2018-06-14T08:54:22.262Z,1010.00
2018-06-14T08:55:01.279Z,1009.97
2018-06-14T08:56:02.878Z,1009.93
2018-06-14T08:57:01.947Z,1009.93
2018-06-14T08:58:21.992Z,1009.92
2018-06-14T08:59:21.928Z,1009.98
2018-06-14T09:00:00.858Z,1009.94
2018-06-14T09:01:00.840Z,1009.92
2018-06-14T09:02:00.730Z,1009.93
2018-06-14T09:03:21.637Z,1009.89
2018-06-14T09:04:21.561Z,1009.90
2018-06-14T09:05:00.562Z,1009.86
2018-06-14T09:06:00.464Z,1009.85
2018-06-14T09:07:00.513Z,1009.82
2018-06-14T09:08:21.312Z,1009.80
2018-06-14T09:09:21.238Z,1009.87
2018-06-14T09:10:00.223Z,1009.85
2018-06-14T09:11:01.881Z,1009.79
2018-06-14T09:12:00.928Z,1009.80
2018-06-14T09:13:20.959Z,1009.86
2018-06-14T09:14:20.920Z,1009.86
2018-06-14T09:14:59.833Z,1009.86
2018-06-14T09:15:59.761Z,1009.82
2018-06-14T09:16:59.699Z,1009.84
2018-06-14T09:18:20.621Z,1009.82
2018-06-14T09:19:20.574Z,1009.92
2018-06-14T09:19:59.501Z,1009.94
2018-06-14T09:20:59.428Z,1009.88
2018-06-14T09:21:59.403Z,1009.91
2018-06-14T09:23:21.215Z,1009.93
2018-06-14T09:24:20.212Z,1009.93
2018-06-14T09:24:59.170Z,1009.91
2018-06-14T09:25:59.122Z,1009.90
2018-06-14T09:26:59.030Z,1009.94
2018-06-14T09:28:19.954Z,1009.90
2018-06-14T09:29:19.896Z,1009.91
2018-06-14T09:29:58.891Z,1009.89
2018-06-14T09:30:58.784Z,1009.90
2018-06-14T09:31:58.717Z,1009.91
2018-06-14T09:33:19.623Z,1009.98
2018-06-14T09:34:19.556Z,1010.01
2018-06-14T09:34:58.547Z,1010.04
2018-06-14T09:35:58.437Z,1009.98
2018-06-14T09:36:58.436Z,1010.01
2018-06-14T09:38:19.318Z,1009.90
2018-06-14T09:39:19.287Z,1009.96
2018-06-14T09:39:58.198Z,1009.96
2018-06-14T09:40:58.162Z,1009.97
2018-06-14T09:41:58.067Z,1009.88
2018-06-14T09:43:18.981Z,1009.93
2018-06-14T09:44:18.907Z,1010.00
2018-06-14T09:44:57.882Z,1010.01
2018-06-14T09:45:57.875Z,1009.91
2018-06-14T09:46:57.743Z,1009.97
2018-06-14T09:48:18.670Z,1009.95
2018-06-14T09:49:18.592Z,1009.90
2018-06-14T09:49:57.550Z,1009.89
2018-06-14T09:50:57.476Z,1009.84
2018-06-14T09:51:57.424Z,1009.82
2018-06-14T09:53:18.329Z,1009.81
2018-06-14T09:54:18.280Z,1009.78
2018-06-14T09:54:57.215Z,1009.80
2018-06-14T09:55:57.169Z,1009.83
2018-06-14T09:56:57.088Z,1009.87
2018-06-14T09:58:18.000Z,1009.89
2018-06-14T09:59:17.934Z,1009.90
2018-06-14T09:59:56.903Z,1009.86
2018-06-14T10:00:56.836Z,1009.96
2018-06-14T10:01:56.791Z,1009.93
2018-06-14T10:03:17.730Z,1009.92
2018-06-14T10:04:17.628Z,1009.91
2018-06-14T10:04:56.570Z,1009.98
2018-06-14T10:05:56.568Z,1009.91
2018-06-14T10:06:56.453Z,1009.81
2018-06-14T10:08:17.401Z,1009.87
2018-06-14T10:09:17.310Z,1009.88
2018-06-14T10:09:56.288Z,1009.91
2018-06-14T10:10:56.254Z,1009.94
2018-06-14T10:11:56.162Z,1009.87
2018-06-14T10:13:17.075Z,1009.97
2018-06-14T10:14:17.065Z,1010.05
2018-06-14T10:14:55.964Z,1009.95
2018-06-14T10:15:55.928Z,1009.90
2018-06-14T10:16:55.851Z,1009.97
2018-06-14T10:18:16.783Z,1009.97
2018-06-14T10:19:16.726Z,1009.99
2018-06-14T10:19:55.653Z,1009.95
2018-06-14T10:20:55.605Z,1009.91
2018-06-14T10:21:55.555Z,1009.88
2018-06-14T10:23:16.477Z,1009.92
2018-06-14T10:24:16.464Z,1009.87
2018-06-14T10:24:55.377Z,1009.89
2018-06-14T10:25:55.321Z,1009.91
2018-06-14T10:26:55.283Z,1009.82
2018-06-14T10:28:16.187Z,1009.77
2018-06-14T10:29:16.171Z,1009.75
2018-06-14T10:29:55.083Z,1009.77
2018-06-14T10:30:55.004Z,1009.78
2018-06-14T10:31:54.953Z,1009.88
2018-06-14T10:33:15.875Z,1009.76
2018-06-14T10:34:15.815Z,1009.71
2018-06-14T10:34:54.795Z,1009.78
2018-06-14T10:35:54.697Z,1009.74
2018-06-14T10:36:54.635Z,1009.72
2018-06-14T10:38:15.569Z,1009.81
2018-06-14T10:39:15.504Z,1009.86
2018-06-14T10:39:54.459Z,1009.92
2018-06-14T10:40:54.426Z,1009.83
2018-06-14T10:41:54.326Z,1009.81
2018-06-14T10:43:15.268Z,1009.86
2018-06-14T10:44:15.287Z,1009.82
2018-06-14T10:44:54.145Z,1009.79
2018-06-14T10:45:54.131Z,1009.75
2018-06-14T10:46:54.037Z,1009.76
2018-06-14T10:48:15.009Z,1009.75
2018-06-14T10:49:14.898Z,1009.73
2018-06-14T10:49:53.839Z,1009.74
2018-06-14T10:50:53.777Z,1009.76
2018-06-14T10:51:53.712Z,1009.78
2018-06-14T10:53:14.633Z,1009.69
2018-06-14T10:54:14.555Z,1009.71
2018-06-14T10:54:53.504Z,1009.71
2018-06-14T10:55:53.453Z,1009.68
2018-06-14T10:56:53.438Z,1009.69
2018-06-14T10:58:14.392Z,1009.66
2018-06-14T10:59:14.237Z,1009.74
2018-06-14T10:59:53.254Z,1009.67
2018-06-14T11:00:53.147Z,1009.65
2018-06-14T11:01:53.092Z,1009.64
2018-06-14T11:03:13.975Z,1009.66
2018-06-14T11:04:13.913Z,1009.69
2018-06-14T11:04:52.856Z,1009.64
2018-06-14T11:05:52.836Z,1009.62
2018-06-14T11:06:52.721Z,1009.60
2018-06-14T11:08:13.646Z,1009.68
2018-06-14T11:09:13.579Z,1009.58
2018-06-14T11:09:52.535Z,1009.59
2018-06-14T11:10:52.502Z,1009.54
2018-06-14T11:11:52.477Z,1009.54
2018-06-14T11:13:13.394Z,1009.55
2018-06-14T11:14:13.260Z,1009.53
2018-06-14T11:14:52.221Z,1009.50
2018-06-14T11:15:52.143Z,1009.71
2018-06-14T11:16:52.073Z,1009.71
2018-06-14T11:18:13.002Z,1009.74
2018-06-14T11:19:12.927Z,1009.73
2018-06-14T11:19:51.969Z,1009.74
2018-06-14T11:20:51.808Z,1009.71
2018-06-14T11:21:51.773Z,1009.73
2018-06-14T11:23:12.664Z,1009.74
2018-06-14T11:24:12.630Z,1009.74
2018-06-14T11:24:51.574Z,1009.74
2018-06-14T11:25:51.494Z,1009.46
2018-06-14T11:26:51.438Z,1009.46
2018-06-14T11:28:12.351Z,1009.49
2018-06-14T11:29:12.323Z,1009.50
2018-06-14T11:29:51.266Z,1009.52
2018-06-14T11:30:51.191Z,1009.49
2018-06-14T11:31:51.109Z,1009.50
2018-06-14T11:33:12.044Z,1009.45
2018-06-14T11:34:11.974Z,1009.41
2018-06-14T11:34:50.914Z,1009.44
2018-06-14T11:35:50.867Z,1009.45
2018-06-14T11:36:50.795Z,1009.34
2018-06-14T11:38:11.728Z,1009.35
2018-06-14T11:39:11.660Z,1009.33
2018-06-14T11:39:50.624Z,1009.43
2018-06-14T11:40:50.545Z,1009.30
2018-06-14T11:41:50.473Z,1009.34
2018-06-14T11:43:11.406Z,1009.28
2018-06-14T11:44:11.346Z,1009.33
2018-06-14T11:44:50.300Z,1009.33
2018-06-14T11:45:50.226Z,1009.25
2018-06-14T11:46:50.161Z,1009.22
2018-06-14T11:48:11.083Z,1009.20
2018-06-14T11:49:11.944Z,1009.19
2018-06-14T11:49:49.976Z,1009.16
2018-06-14T11:50:49.927Z,1009.16
2018-06-14T11:51:49.856Z,1009.14
2018-06-14T11:53:10.786Z,1009.18
2018-06-14T11:54:10.697Z,1009.11
2018-06-14T11:54:49.676Z,1009.14
2018-06-14T11:55:49.611Z,1009.18
2018-06-14T11:56:49.527Z,1009.07
2018-06-14T11:58:10.446Z,1009.11
2018-06-14T11:59:10.380Z,1009.09
2018-06-14T11:59:49.330Z,1009.11
2018-06-14T12:00:49.248Z,1009.05
2018-06-14T12:01:49.258Z,1009.04
2018-06-14T12:03:12.942Z,1009.04
2018-06-14T12:04:10.983Z,1009.03